Αρχική σελίδα
METAR-TAF:

METAR-TAF

Αεροδρόμια :

Πόλη του Κουβέιτ, Κουβέιτ

γεωγραφικό πλάτος: 29-13N, γεωγραφικό μήκος: 047-59E, υψόμετρο: 55 μ

Παρών καιρός

Η αναφορά έγινε 28 λεπτά πριν, στις 03:00 UTC
Άνεμος 5 kt από Δ
Θερμοκρασία 7°C
Υγρασία 81%
Πίεση 1019 hPa
Ορατότητα 10 χλμ και άνω
Δεν υπάρχουν νέφη με βάση κάτω από τα 1500 μ. και δεν υπάρχουν νέφη σωρειτομελανίτες.

METAR: OKBK 200300Z 26005KT CAVOK 07/04 Q1019 NOSIG

Χρόνος: 06:28 (03:28 UTC)

Πρόγνωση Καιρού

Η αναφορά έγινε 4 ώρες και 43 λεπτά πριν, στις 22:45 UTC
Η πρόγνωση ισχύει από τις 20 στις 00 UTC έως τις 21 στις 06 UTC
Άνεμος 10 kt από Β/BΔ
Ορατότητα: 7000 μ
Καθαρός ουρανός

TAF: OKBK 192245Z 2000/2106 33010KT 7000 SKC

Μετεωρολογικές αναφορές και προγνώσεις για περισσότερα από 4000 αεροδρόμια (δελτία METAR και TAF).

Οι διαθέσιμοι σταθμοί απεικονίζονται στο χάρτη με κίτρινες και κόκκινες κουκκίδες.

Μετακινήστε το ποντίκι πάνω από τις κουκκίδες για να δείτε το όνομα του σταθμού.

Στη συνέχεια, κάντε κλικ για να δείτε τις μετεωρολογικές αναφορές και τις προγνώσεις καιρού.

Για να αλλάξετε το χάρτη: κάντε κλικ στα πράσινα κουμπιά με τον μαύρο σταυρό για να ζουμάρετε, στο πράσινο κουμπί με την παύλα για να αφαιρέσετε το ζουμ ή στα πράσινα βέλη για να αντιπαραβάλλετε χάρτες.


METAR-TAF: